Domov               UVHVVR             MKGP            O straneh              
ZDRAVSTVENO VARSTVO RASTLIN
  MREŽA AGROMET. POSTAJ
 ► PROGNOSTIČNA OBVESTILA
AGROMETEOROLOŠKI PODATKI -
ARSO
OBVLADOVANJE TVEGANJ ZARADI
NEUGODNIH VREMENSKIH RAZMER
  ► NARAVNE NESREČE
  ► SUŠA/MOČA
  ► NAMAKANJE
  ► ŽLED (gozdarstvo)
KARTOGRAFSKI PRIKAZI
SPLETNE POVEZAVE
PROJEKTI IN PUBLIKACIJE

AGROMETEOROLOŠKA MREŽA: VREMENSKE POSTAJE IN FENOLOŠKA OPAZOVANJA

Pregled podatkov za lokacijo Zbigovci, meteorološka postaja 25164

Pregled senzorjev na lokaciji

ID Ime Zadnja
vrednost
Datum
zadnje
spremembe
Tip
senzorja
1931 Omočenost lista (U) 0 U 23.3.2019 12:59 A730WET
1930 Padavine (mm) 0 mm 23.3.2019 13:00 Generic 0.2 mm
1932 Relativna vlaga 2 m (% RH) 33,41 % RH 23.3.2019 12:59 Generic 0 - 100 %
1933 Temperatura 2 m (°C) 16,24 °C 23.3.2019 13:00 Generic -40 - +60 °C

Pregled podatkov zadnjih 24 ur

Zap.
št.
Datum in čas Zbigovci
Omočenost
lista
Padavine Relativna
vlaga
2
m
Temperatura
2
m
1 23.3.2019 12:00 0 0 33,4 16,2
2 23.3.2019 11:30 0 0 36,7 15,7
3 23.3.2019 11:00 0 0 37,2 15,1
4 23.3.2019 10:30 0 0 37,8 14,2
5 23.3.2019 10:00 0 0 38,1 13,2
6 23.3.2019 09:30 0 0 40,3 11,6
7 23.3.2019 09:00 0 0 43,3 10,7
8 23.3.2019 08:30 0 0 44,2 9,5
9 23.3.2019 08:00 0 0 46,8 8,1
10 23.3.2019 07:30 0 0 50,8 6,8
11 23.3.2019 07:00 0 0 52,6 5,8
12 23.3.2019 06:30 0 0 55,3 5,8
13 23.3.2019 06:00 0 0 53 6,3
14 23.3.2019 05:30 0 0 50,4 6,3
15 23.3.2019 05:00 0 0 52,9 6,2
16 23.3.2019 04:30 0 0 50,3 6,5
17 23.3.2019 04:00 0 0 49,2 6,7
18 23.3.2019 03:30 0 0 49 6,6
19 23.3.2019 03:00 0 0 49,2 6,6
20 23.3.2019 02:30 0 0 48,3 7,3
21 23.3.2019 02:00 0 0 45,8 7,8
22 23.3.2019 01:30 0 0 46 7,6
23 23.3.2019 01:00 0 0 45,6 8,1
24 23.3.2019 00:30 0 0 43,2 8,4
25 23.3.2019 00:00 0 0 42,9 8
26 22.3.2019 23:30 0 0 39,9 8,1
27 22.3.2019 23:00 0 0 44,7 7,5
28 22.3.2019 22:30 0 0 35,4 10,4
29 22.3.2019 22:00 0 0 32,1 10,9
30 22.3.2019 21:30 0 0 29,5 10,7
31 22.3.2019 21:00 0 0 28,5 10,9
32 22.3.2019 20:30 0 0 28,8 11,1
33 22.3.2019 20:00 0 0 26,2 12
34 22.3.2019 19:30 0 0 26,1 12,2
35 22.3.2019 19:00 0 0 26,9 12,5
36 22.3.2019 18:30 0 0 27,6 12,8
37 22.3.2019 18:00 0 0 27,3 13,7
38 22.3.2019 17:30 0 0 24,8 15,1
39 22.3.2019 17:00 0 0 23,2 15,4
40 22.3.2019 16:30 0 0 20 16,5
41 22.3.2019 16:00 0 0 18,7 17,1
42 22.3.2019 15:30 0 0 15,6 16,3
43 22.3.2019 15:00 0 0 21,7 15,8
44 22.3.2019 14:30 0 0 24,7 15,6
45 22.3.2019 14:00 0 0 24,8 15,1
46 22.3.2019 13:30 0 0 30,7 14,9
47 22.3.2019 13:00 0 0 29,4 14,6
48 22.3.2019 12:30 0 0 27,7 14,5
© 2011 Ministrstvo za kmetijstvo, gozdarstvo in prehrano. Vse pravice pridržane.